KROA/ROA METAR and TAF weather

Enter ICAO airport designator
Station Type Date Time Source
KROA METAR 2023/02/08 06:54 UTC NOAA

KROA 080654Z 24009KT 10SM SCT190 12/M01 A3019 RMK AO2 SLP220 T01171006


Station Type Date Time Source
KROA Decoded METAR 2023/02/08 06:54 UTC NOAA

ROANOKE REGIONAL AIRPORT, VA, United States (KROA) 37-19N 079-58W 362M
Feb 08, 2023 - 01:54 AM EST / 2023.02.08 0654 UTC
Wind: from the WSW (240 degrees) at 10 MPH (9 KT):0
Visibility: 10 mile(s):0
Sky conditions: partly cloudy
Temperature: 53.1 F (11.7 C)
Dew Point: 30.9 F (-0.6 C)
Relative Humidity: 42%
Pressure (altimeter): 30.19 in. Hg (1022 hPa)
ob: KROA 080654Z 24009KT 10SM SCT190 12/M01 A3019 RMK AO2 SLP220 T01171006
cycle: 7

Station Type Date Time Source
KROA TAF 2023/02/08 06:27 UTC NOAA

TAF KROA 080525Z 0806/0906 25007KT P6SM BKN250
FM081500 29007KT P6SM BKN100
FM082300 14003KT P6SM OVC100

Example: see airport list